Stations météo

réclame
Mon MeteoGroup
Puebla De D. Rodrigo, Espagne (8271): Température de l'air & dewpoint: 11.10.2017 17:00:00 - 17.10.2017 17:00:00 (CEST)Puebla De D. Rodrigo, Espagne (8271): Vitesse du vent & gusts: 11.10.2017 17:00:00 - 17.10.2017 17:00:00 (CEST)Puebla De D. Rodrigo, Espagne (8271): Direction du vent: 11.10.2017 17:00:00 - 17.10.2017 17:00:00 (CEST)Puebla De D. Rodrigo, Espagne (8271): reduced air pressure: 11.10.2017 17:00:00 - 17.10.2017 17:00:00 (CEST)Puebla De D. Rodrigo, Espagne (8271): Quantités de précipitations: 11.10.2017 17:00:00 - 17.10.2017 17:00:00 (CEST)
Date & Time tt [°C] td [°C] ff [km/h] ff [knt] fx [km/h] fx [knt] dd ppp [hPa] rr [mm]
17.10.2017 17:00:00 - - - - - - - - -
17.10.2017 16:00:00 15,5 14,5 11 6 33 18 SSW 1014,3 1,1
17.10.2017 15:00:00 18,8 11,6 18 10 31 17 SW 1013,8 0,1
17.10.2017 14:00:00 21,1 11,4 13 7 24 13 SSW 1013,3 -
17.10.2017 13:00:00 21,2 11,6 12 7 22 12 S 1013,7 0,0
17.10.2017 12:00:00 20,3 11,0 10 5 31 17 SW 1015,0 0,0
17.10.2017 11:00:00 18,9 9,0 2 1 15 8 E 1015,7 0,0
17.10.2017 10:00:00 17,1 8,0 0 0 6 3 N 1015,5 0,0
17.10.2017 09:00:00 15,9 6,8 3 2 21 11 ENE 1014,9 0,0
17.10.2017 08:00:00 16,1 7,0 16 8 23 12 ESE 1014,5 -
17.10.2017 07:00:00 15,3 5,8 7 4 14 8 E 1015,0 0,0
17.10.2017 06:00:00 15,3 5,5 7 4 13 7 ESE 1015,2 0,0
17.10.2017 05:00:00 13,8 3,8 3 2 7 4 SE 1015,7 0,0
17.10.2017 04:00:00 15,1 4,5 1 0 6 4 S 1016,0 0,0
17.10.2017 03:00:00 15,3 4,3 1 1 6 3 SSW 1016,4 0,0
17.10.2017 02:00:00 15,5 3,9 1 1 5 3 SE 1016,6 -
17.10.2017 01:00:00 17,4 4,3 1 1 3 2 E 1016,5 0,0
17.10.2017 00:00:00 19,4 4,6 1 1 9 5 SSE 1016,4 0,0
16.10.2017 23:00:00 19,6 4,1 3 2 8 5 E 1015,9 0,0
16.10.2017 22:00:00 21,2 4,6 4 2 10 6 NNE 1015,5 0,0
16.10.2017 21:00:00 22,2 5,1 3 2 13 7 SSW 1014,6 0,0
16.10.2017 20:00:00 23,9 5,8 10 5 13 7 SW 1014,3 -
16.10.2017 19:00:00 26,4 7,0 8 5 21 11 SW 1013,6 0,0
16.10.2017 18:00:00 28,7 8,9 7 4 22 12 WSW 1013,2 0,0
16.10.2017 17:00:00 29,4 9,6 11 6 30 16 SSW 1012,9 0,0
16.10.2017 16:00:00 28,4 10,2 12 6 27 14 SSW 1013,6 0,0
16.10.2017 15:00:00 29,6 11,7 8 4 22 12 SE 1013,8 0,0
16.10.2017 14:00:00 27,5 11,6 3 1 21 11 E 1015,5 -
16.10.2017 13:00:00 26,6 13,0 9 5 23 12 ESE 1016,5 0,0
16.10.2017 12:00:00 23,0 11,7 14 7 23 13 ESE 1017,5 0,0
16.10.2017 11:00:00 19,6 10,5 8 4 13 7 ENE 1018,5 0,0
16.10.2017 10:00:00 15,8 8,0 3 2 9 5 NNE 1018,9 0,0
16.10.2017 09:00:00 12,7 6,2 6 3 11 6 NE 1018,8 0,0
16.10.2017 08:00:00 12,1 5,0 5 3 10 6 NNE 1018,4 -
16.10.2017 07:00:00 12,3 4,5 4 2 8 5 SSW 1018,1 0,0
16.10.2017 06:00:00 13,4 4,5 0 0 6 3 N 1017,6 0,0
16.10.2017 05:00:00 14,1 4,6 1 0 6 4 E 1017,4 0,0
16.10.2017 04:00:00 15,1 4,1 2 1 4 2 ESE 1017,2 0,0
16.10.2017 03:00:00 17,8 5,8 0 0 4 2 N 1016,6 0,0
16.10.2017 02:00:00 19,9 6,5 0 0 7 4 N 1016,4 -
16.10.2017 01:00:00 21,1 7,0 2 1 10 5 E 1016,0 0,0
16.10.2017 00:00:00 22,1 7,8 3 1 8 4 NNE 1015,7 0,0
15.10.2017 23:00:00 22,2 7,6 4 2 7 4 NE 1015,4 0,0
15.10.2017 22:00:00 24,5 8,8 0 0 8 4 N 1014,5 0,0
15.10.2017 21:00:00 24,8 8,7 3 2 13 7 SSW 1014,0 0,0
15.10.2017 20:00:00 25,6 9,4 9 5 14 8 SSW 1013,3 -
15.10.2017 19:00:00 27,7 10,4 10 6 15 8 SSW 1012,5 0,0
15.10.2017 18:00:00 29,2 11,2 11 6 24 13 SSW 1012,7 0,0
15.10.2017 17:00:00 31,4 12,7 7 4 22 12 SE 1012,2 0,0
15.10.2017 16:00:00 31,8 13,6 7 4 19 11 E 1013,1 0,0
15.10.2017 15:00:00 30,3 13,2 8 5 20 11 ESE 1014,0 0,0
15.10.2017 14:00:00 29,4 13,2 8 4 16 9 E 1015,1 -
15.10.2017 13:00:00 27,1 13,1 8 4 16 9 E 1016,6 0,0
15.10.2017 12:00:00 24,2 12,8 10 5 16 9 ENE 1017,8 0,0
15.10.2017 11:00:00 21,3 12,2 12 6 23 12 ESE 1018,4 0,0
15.10.2017 10:00:00 17,4 9,8 14 7 23 13 ESE 1019,0 0,0
15.10.2017 09:00:00 15,3 7,3 8 5 14 8 E 1019,1 0,0
15.10.2017 08:00:00 15,4 6,7 4 2 9 5 NNE 1018,7 -
15.10.2017 07:00:00 16,4 7,0 5 3 8 5 N 1018,4 0,0
15.10.2017 06:00:00 17,1 7,4 2 1 5 3 E 1018,3 0,0
15.10.2017 05:00:00 17,9 7,3 0 0 4 2 N 1017,9 0,0
15.10.2017 04:00:00 19,3 8,0 4 2 11 6 WNW 1017,7 0,0
15.10.2017 03:00:00 18,7 7,1 0 0 7 4 N 1018,2 0,0
15.10.2017 02:00:00 20,3 7,7 4 2 6 3 SW 1018,0 -
15.10.2017 01:00:00 20,9 7,6 0 0 6 3 N 1017,9 0,0
15.10.2017 00:00:00 22,2 8,3 3 2 6 3 WSW 1017,8 0,0
14.10.2017 23:00:00 22,8 7,7 0 0 6 4 SE 1017,4 0,0
14.10.2017 22:00:00 25,1 8,9 0 0 6 3 W 1016,4 0,0
14.10.2017 21:00:00 25,8 8,8 6 3 10 6 WSW 1016,2 0,0
14.10.2017 20:00:00 26,5 9,3 6 4 9 5 WSW 1015,7 -
14.10.2017 19:00:00 29,1 10,3 1 1 9 5 W 1014,6 0,0
14.10.2017 18:00:00 29,8 10,4 5 3 17 9 WSW 1014,1 0,0
14.10.2017 17:00:00 31,4 11,2 4 2 19 10 W 1014,4 0,0
14.10.2017 16:00:00 31,5 11,3 6 3 18 10 WSW 1014,5 0,0
14.10.2017 15:00:00 32,0 13,3 5 3 14 8 E 1014,4 0,0
14.10.2017 14:00:00 30,8 14,0 5 3 11 6 E 1015,8 -
14.10.2017 13:00:00 26,5 12,5 5 3 10 6 ENE 1017,8 0,0
14.10.2017 12:00:00 21,6 10,4 5 3 10 5 E 1019,2 0,0
14.10.2017 11:00:00 17,8 9,4 2 1 7 4 SE 1020,0 0,0
14.10.2017 10:00:00 13,4 7,4 3 2 6 4 NE 1020,4 0,0
14.10.2017 09:00:00 10,4 6,5 0 0 4 2 N 1020,8 0,0
14.10.2017 08:00:00 9,8 5,8 0 0 1 1 WNW 1020,7 -
14.10.2017 07:00:00 10,8 5,9 0 0 0 0 N 1020,2 0,0
14.10.2017 06:00:00 11,6 5,9 0 0 3 1 N 1020,1 0,0
14.10.2017 05:00:00 12,1 5,9 0 0 2 1 NE 1019,8 0,0
14.10.2017 04:00:00 13,2 6,1 0 0 3 2 N 1019,5 0,0
14.10.2017 03:00:00 14,3 5,9 0 0 3 1 N 1019,5 0,0
14.10.2017 02:00:00 15,8 6,2 0 0 3 2 N 1019,3 -
14.10.2017 01:00:00 18,0 7,4 1 1 6 4 S 1019,1 0,0
14.10.2017 00:00:00 18,6 7,0 3 2 6 3 SSW 1018,7 0,0
13.10.2017 23:00:00 20,3 8,0 0 0 8 4 SSW 1018,1 0,0
13.10.2017 22:00:00 22,1 8,5 5 3 9 5 W 1017,6 0,0
13.10.2017 21:00:00 22,2 7,6 6 3 9 5 SW 1017,0 0,0
13.10.2017 20:00:00 24,3 7,4 3 2 15 8 SW 1016,3 -
13.10.2017 19:00:00 27,2 9,0 5 3 19 10 W 1015,6 0,0
13.10.2017 18:00:00 30,1 10,0 6 3 26 14 WSW 1014,4 0,0
13.10.2017 17:00:00 31,2 11,0 9 5 23 13 WSW 1014,5 0,0
13.10.2017 16:00:00 32,0 11,8 8 4 25 14 W 1014,8 0,0
13.10.2017 15:00:00 31,3 11,1 9 5 34 18 WSW 1015,5 0,0
13.10.2017 14:00:00 31,4 12,2 6 4 28 15 WSW 1016,0 -
13.10.2017 13:00:00 28,2 11,3 5 3 10 6 NNE 1017,4 0,0
13.10.2017 12:00:00 22,2 9,7 5 3 11 6 NE 1019,2 0,0
13.10.2017 11:00:00 19,0 9,2 3 2 8 4 ENE 1019,8 0,0
13.10.2017 10:00:00 15,2 8,0 2 1 5 3 E 1020,3 0,0
13.10.2017 09:00:00 12,3 7,0 0 0 3 2 WSW 1020,5 0,0
13.10.2017 08:00:00 11,4 6,1 0 0 3 2 N 1020,6 -
13.10.2017 07:00:00 12,0 6,2 0 0 1 1 N 1020,1 0,0
13.10.2017 06:00:00 13,3 6,7 0 0 3 2 SSW 1019,5 0,0
13.10.2017 05:00:00 13,6 6,4 0 0 0 0 N 1019,6 0,0
13.10.2017 04:00:00 14,7 6,5 0 0 0 0 N 1019,7 0,0
13.10.2017 03:00:00 16,4 7,0 0 0 5 3 N 1019,2 0,0
13.10.2017 02:00:00 17,6 7,0 0 0 4 2 SE 1018,9 -
13.10.2017 01:00:00 19,1 7,6 1 1 - - ENE 1018,8 -
13.10.2017 00:00:00 21,0 8,0 1 1 5 3 S 1018,4 0,0
12.10.2017 23:00:00 - - - - - - - - -
12.10.2017 22:00:00 - - - - - - - - -
12.10.2017 21:00:00 - - - - - - - - -
12.10.2017 20:00:00 - - - - - - - - -
12.10.2017 19:00:00 29,0 11,1 10 5 27 15 SW 1015,2 0,0
12.10.2017 18:00:00 30,3 11,3 12 6 35 19 SW 1015,1 0,0
12.10.2017 17:00:00 31,8 12,1 14 8 33 18 SSW 1014,4 0,0
12.10.2017 16:00:00 30,9 11,3 20 11 34 18 SSW 1014,9 0,0
12.10.2017 15:00:00 31,2 12,1 16 9 30 16 SSW 1015,4 0,0
12.10.2017 14:00:00 30,6 12,0 16 9 30 16 S 1016,2 -
12.10.2017 13:00:00 28,1 10,8 10 5 18 10 E 1017,5 0,0
12.10.2017 12:00:00 22,2 8,3 7 4 14 8 E 1019,1 0,0
12.10.2017 11:00:00 18,7 8,1 5 3 9 5 ENE 1019,9 0,0
12.10.2017 10:00:00 15,3 7,1 3 1 5 3 E 1020,6 0,0
12.10.2017 09:00:00 11,3 5,1 1 1 6 3 SW 1020,5 0,0
12.10.2017 08:00:00 10,5 4,5 1 1 5 3 WSW 1020,4 -
12.10.2017 07:00:00 10,8 4,3 1 1 4 2 NNE 1020,1 0,0
12.10.2017 06:00:00 11,6 4,3 0 0 4 2 SW 1019,8 0,0
12.10.2017 05:00:00 11,9 4,1 0 0 5 3 N 1019,5 0,0
12.10.2017 04:00:00 12,4 4,1 0 0 4 2 N 1019,1 0,0
12.10.2017 03:00:00 13,1 3,9 1 0 4 2 WNW 1019,0 0,0
12.10.2017 02:00:00 14,8 4,5 1 1 4 2 ENE 1018,8 -
12.10.2017 01:00:00 15,4 4,5 0 0 0 0 N 1018,5 0,0
12.10.2017 00:00:00 17,6 4,8 0 0 4 2 SSW 1018,1 0,0
11.10.2017 23:00:00 19,1 5,5 2 1 4 2 SSW 1017,5 0,0
11.10.2017 22:00:00 21,2 5,9 0 0 10 5 N 1016,5 0,0
11.10.2017 21:00:00 22,7 6,4 4 2 11 6 W 1015,5 0,0
11.10.2017 20:00:00 24,5 7,1 6 4 10 6 W 1014,8 -
11.10.2017 19:00:00 26,8 7,7 4 2 16 9 W 1013,7 0,0
11.10.2017 18:00:00 29,2 8,8 4 2 20 11 WNW 1013,1 0,0
11.10.2017 17:00:00 30,0 9,6 7 4 21 11 SW 1012,6 0,0

tt = Température de l'air
td = dewpoint
ff = Vitesse du vent
fx = gusts
dd = Direction du vent
ppp = reduced air pressure
rr = Quantités de précipitations

stations d'obs. à proximité